Logo AVAMET
Benvolgut visitant, si us plau, ingressa Recuperar contrasenya
AVAMET paisatges

València Jesús

Dades diàries. Acumulats / Últims 30 dies disponibles

Data Temperatura (°C) Humitat rel. (%) Pressió rel. (hPa) Vent (km/h) Precipitació
Mínima Mitjana Màxima Amplitud
tèrmica
Mínima Mitjana Màxima Mínima Mitjana Màxima Predom. Mitjana Ràfega
màxima
Total
(mm)
Índex-n
Mínima Mitjana Màxima Mínima Mitjana Màxima n
0 a 1
P0 max
mm 5'
Dades mensuals acumulades fins l'últim dia disponible
02/2020 7,0 11,0 13,9 12,9 14,3 20,2 27,4 20,4 1 60 97 1.019 1.025 1.032   2,1 33,8 0,0
Dades anuals acumulades fins l'últim dia disponible
2020 3,4 9,5 13,9 12,0 12,1 19,0 27,4 24,0 1 59 97 1.019 1.025 1.033   2,0 35,4 0,0
Últims 30 dies disponibles
20-02-2020 8,1     11,2     17,1 9,0 1 67 90 1.023 1.025 1.027 SSE 1,7 19,3 0,0
19-02-2020 11,8     10,3     16,5 4,7 1 59 93 1.027 1.029 1.031 ESE 2,0 19,3 0,0
18-02-2020 11,6     10,0     14,3 2,7 1 66 94 1.028 1.030 1.032 E 1,3 20,9 0,0
17-02-2020 10,1     12,2     23,7 13,6 1 68 97 1.021 1.024 1.028 ESE 3,4 29,0 0,0
16-02-2020 9,8     10,8     16,5 6,7 1 73 95 1.023 1.025 1.026 ESE 1,5 16,1 0,0
15-02-2020 9,6     11,7     17,8 8,2 1 64 89 1.023 1.025 1.026 SE 2,6 22,5 0,0
14-02-2020 11,3     13,4     22,2 10,9 1 54 82 1.022 1.023 1.025 SSE 1,5 17,7 0,0
13-02-2020 11,3     12,5     19,9 8,6 1 64 90 1.019 1.021 1.022 ESE 1,0 14,5 0,0
12-02-2020 12,7     12,5     19,2 6,5 1 65 89 1.022 1.023 1.024 E 2,4 19,3 0,0
11-02-2020 13,9     15,0     24,9 11,0 1 51 84 1.020 1.022 1.025 SE 1,8 19,3 0,0
10-02-2020 11,2     15,3     24,3 13,1 1 49 79 1.023 1.026 1.029 S 3,9 20,9 0,0
09-02-2020 8,6     11,1     17,7 9,1 1 66 89 1.026 1.028 1.030 SSE 1,4 12,9 0,0
08-02-2020 7,0     10,5     17,8 10,8 1 65 88 1.022 1.023 1.026 SE 1,2 12,9 0,0
07-02-2020 9,7     10,2     15,4 5,7 1 63 86 1.022 1.023 1.025 SE 0,6 8,0 0,0
06-02-2020 8,2     10,6     15,7 7,5 1 62 85 1.024 1.026 1.028 ESE 1,4 16,1 0,0
05-02-2020 10,2     10,9     17,5 7,3 1 60 83 1.025 1.027 1.030 E 2,4 24,1 0,0
04-02-2020 13,9     16,6     27,4 13,5 1 41 76 1.020 1.023 1.025 SSE 2,1 17,7 0,0
03-02-2020 13,5     15,2     25,5 12,0 1 52 80 1.024 1.026 1.028 SSE 1,4 12,9 0,0
02-02-2020 13,9     15,4     24,9 11,0 1 52 78 1.024 1.026 1.027 S 2,1 19,3 0,0
01-02-2020 13,6     21,8     25,8 12,2 40 54 69 1.020 1.022 1.025 OSO 6,0 33,8 0,0
18-01-2020 9,9     10,3     18,3 8,4 1 44 69 1.020 1.027 1.031 SSE 2,6 29,0 0,0
17-01-2020 8,2     15,2     18,3 10,1 1 47 61 1.026 1.028 1.031 SO 6,6 35,4 0,0
16-01-2020 7,7     10,0     12,1 4,4 69 77 81 1.025 1.026 1.028 S 0,5 6,4 0,0
15-01-2020 5,6     9,9     19,8 14,2 1 50 79 1.021 1.023 1.026 SSE 1,6 17,7 0,0
14-01-2020 5,2     8,3     16,3 11,1 1 45 83 1.019 1.021 1.022 SE 0,7 11,3 0,0
13-01-2020 3,4     8,3     17,7 14,3 1 49 77 1.020 1.024 1.029 SE 1,5 16,1 0,0
12-01-2020 4,4     11,5     15,5 11,1 49 67 83 1.028 1.029 1.030 SSE 0,9 9,7 0,0
02-01-2020 6,4     10,3     14,8 8,4 65 81 88 1.029 1.030 1.031 S 1,1 11,3 0,0
01-01-2020 5,8     7,6     14,6 8,8 1 60 87 1.029 1.031 1.033 SE 0,7 8,0 0,0
31-12-2019 6,6     8,3     15,6 9,0 1 61 87 1.030 1.031 1.034 SE 0,4 11,3 0,0
Últims 13 mesos disponibles
12/2019 6,4 11,1 18,9 11,5 12,1 18,2 24,8 18,4 31 52 83 1.000 1.017 1.031 SE 3,7 69,2 55,2
11/2019 6,0 12,6 21,3 13,2 15,7 20,2 29,3 23,3 31 43 61 997 1.009 1.017 SSO 5,1 54,7 4,6
10/2019 11,9 16,9 21,1 18,0 17,2 25,7 35,3 23,4 34 55 67 1.003 1.014 1.020 SSE 2,6 40,2 11,4
09/2019 16,2 20,8 24,0 21,9 21,2 28,1 34,7 18,5 37 62 71 1.008 1.016 1.023 SE 4,2 54,7 82,6
08/2019 18,8 23,1 27,5 27,2 27,3 31,1 41,7 22,9 40 68 78 1.009 1.014 1.018 ESE 4,1 54,7 11,4
07/2019 21,9 23,4 25,8 27,2 28,3 31,1 37,8 15,9 49 65 75 1.003 1.012 1.019 SSE 4,0 41,8 5,0
06/2019 14,1 18,9 23,0 23,0 21,7 27,2 35,3 21,2 38 63 79 1.007 1.014 1.020 SSE 4,2 57,9 0,0
05/2019 10,1 15,2 20,9 19,1 19,0 23,1 32,7 22,6 45 65 84 1.003 1.014 1.023 SE 4,2 49,9 16,6
04/2019 9,2 11,7 14,5 15,4 13,8 19,5 29,8 20,6 42 65 96 998 1.010 1.018 S 6,4 67,6 59,4
03/2019 7,3 10,4 16,2 15,4 13,4 20,2 29,3 22,0 41 56 84 1.008 1.021 1.028 SSE 3,6 56,3 15,0
02/2019 4,9 8,1 11,1 13,2 12,8 18,2 25,4 20,5 33 61 74 993 1.023 1.032 ESE 3,4 59,5 0,0
01/2019 2,5 7,2 12,9 12,3 12,2 17,1 20,6 18,1 37 55 74 1.000 1.017 1.029 SE 3,5 54,7 0,2
12/2018 5,4 9,4 12,8 13,4 14,4 18,9 23,7 18,3 48 68 82 1.007 1.024 1.029 SO 2,5 43,5 10,0
Tots els anys disponibles
2019 2,5 15,0 27,5 18,2 12,1 23,4 41,7 39,2 31 59 96 993 1.015 1.032 SSE 4,1 69,2 261,4
2018 2,8 15,2 26,6 18,7 8,9 23,0 37,4 34,6 36 66 93 992 1.014 1.034 SSE 4,1 69,0 694,0
2017 1,4 15,0 26,6 19,1 9,3 23,3 36,8 35,4 31 64 90 996 1.017 1.035 S 1,1 69,0 316,0
2016 3,3 15,1 25,8 18,9 11,1 22,8 36,6 33,3 32 64 89 994 1.017 1.036 71,0 569,8
Temperatura (°C)
Humitat relativa (%)
Velocitat del vent i ràfega màxima (km/h)
Direcció del vent (°)
Pressió (hPa)
Precipitació (mm)
Nota sobre les dades: s'avisa a l'usuari de la provisionalitat i no oficialitat d'aquestes dades
Logo AVAMET blanc
Web allotjada a Sollutia
Llicència de Creative CommonsLa web d'AVAMET i els seus continguts estan subjectes a una llicència de
Reconeixement - No Comercial - Compartir igual
Últimes estacions:  Sorita (AVAMET), Gorga (Soci), Massalavés - Ajuntament (Soci/Inforatge), Albuixech - Polígon (Inforatge), La Torre d'en Besora (Ajuntament soci), Xixona - Sogorb Barranc Blanc (Soci), Pedreguer - Patronat (Soci) - - -